Time;durP1;ratioP1;P1;durP2;ratioP2;P2;SDS_P1;SDS_P2;PMS_P1;PMS_P2;Temp;Humidity;BMP_temperature;BMP_pressure;BME280_temperature;BME280_humidity;BME280_pressure;Samples;Min_cycle;Max_cycle;Signal;HPM_P1;HPM_P2
2023/07/26 00:01:33;;;;;;;1.05;0.60;;;;;;;;;;4995127;28;20041;-47
2023/07/26 00:03:58;;;;;;;0.70;0.70;;;;;;;;;;4983225;28;20073;-48
2023/07/26 00:06:29;;;;;;;4.10;0.70;;;;;;;;;;4991454;28;20078;-46
2023/07/26 00:08:55;;;;;;;0.80;0.65;;;;;;;;;;4995453;28;20037;-51
2023/07/26 00:11:20;;;;;;;0.77;0.60;;;;;;;;;;4993923;28;20514;-51
2023/07/26 00:13:46;;;;;;;0.60;0.60;;;;;;;;;;4993787;28;20523;-47
2023/07/26 00:16:12;;;;;;;0.70;0.68;;;;;;;;;;4986449;28;20046;-49
2023/07/26 00:18:39;;;;;;;1.38;1.27;;;;;;;;;;4993198;28;20097;-44
2023/07/26 00:21:05;;;;;;;0.82;0.73;;;;;;;;;;4988141;28;20493;-47
2023/07/26 00:23:30;;;;;;;1.10;0.70;;;;;;;;;;5004338;28;20072;-50
2023/07/26 00:25:56;;;;;;;0.65;0.65;;;;;;;;;;4989589;28;20121;-46
2023/07/26 00:28:22;;;;;;;1.88;0.60;;;;;;;;;;4983601;28;20507;-48
2023/07/26 00:30:49;;;;;;;2.28;0.73;;;;;;;;;;4986515;28;20072;-49
2023/07/26 00:33:14;;;;;;;2.15;0.75;;;;;;;;;;4995899;28;20130;-48
2023/07/26 00:35:42;;;;;;;1.23;0.68;;;;;;;;;;4993077;28;20520;-46
2023/07/26 00:38:07;;;;;;;0.63;0.63;;;;;;;;;;4979310;28;20463;-46
2023/07/26 00:40:33;;;;;;;1.75;1.65;;;;;;;;;;4984366;28;20038;-44
2023/07/26 00:42:59;;;;;;;0.50;0.50;;;;;;;;;;4994243;28;20057;-47
2023/07/26 00:45:25;;;;;;;1.67;0.82;;;;;;;;;;4991371;28;20495;-48
2023/07/26 00:47:51;;;;;;;0.60;0.60;;;;;;;;;;4989328;28;20108;-48
2023/07/26 00:50:19;;;;;;;0.85;0.68;;;;;;;;;;4989501;28;20121;-48
2023/07/26 00:52:46;;;;;;;2.97;0.80;;;;;;;;;;4986357;28;20031;-48
2023/07/26 00:55:12;;;;;;;0.50;0.50;;;;;;;;;;4992199;28;20089;-47
2023/07/26 00:57:37;;;;;;;2.03;0.50;;;;;;;;;;4993839;28;20057;-48
2023/07/26 01:00:04;;;;;;;3.65;0.73;;;;;;;;;;4988206;28;20042;-45
2023/07/26 01:02:29;;;;;;;0.68;0.68;;;;;;;;;;4982247;28;20038;-48
2023/07/26 01:04:55;;;;;;;0.60;0.60;;;;;;;;;;4989644;28;20031;-45
2023/07/26 01:07:56;;;;;;;0.70;0.70;;;;;;;;;;4990008;28;20073;-46
2023/07/26 01:10:34;;;;;;;2.97;0.70;;;;;;;;;;4983703;28;20060;-48
2023/07/26 01:13:22;;;;;;;0.45;0.43;;;;;;;;;;4993678;28;20022;-50
2023/07/26 01:15:49;;;;;;;0.90;0.50;;;;;;;;;;4995487;28;20038;-47
2023/07/26 01:18:16;;;;;;;1.55;0.63;;;;;;;;;;4999183;28;20503;-46
2023/07/26 01:20:43;;;;;;;1.48;0.80;;;;;;;;;;4995018;28;20125;-47
2023/07/26 01:23:09;;;;;;;2.45;1.10;;;;;;;;;;4995706;28;20041;-48
2023/07/26 01:25:35;;;;;;;1.98;0.50;;;;;;;;;;4998304;28;20081;-48
2023/07/26 01:28:00;;;;;;;0.70;0.60;;;;;;;;;;4995015;28;20033;-44
2023/07/26 01:30:29;;;;;;;1.88;0.70;;;;;;;;;;4997845;28;20245;-46
2023/07/26 01:32:57;;;;;;;5.43;0.93;;;;;;;;;;4997281;28;20745;-45
2023/07/26 01:35:23;;;;;;;0.95;0.95;;;;;;;;;;4991791;28;21966;-48
2023/07/26 01:37:50;;;;;;;2.70;0.88;;;;;;;;;;5001960;28;20066;-45
2023/07/26 01:40:17;;;;;;;1.38;0.80;;;;;;;;;;4997304;28;20100;-46
2023/07/26 01:42:42;;;;;;;0.88;0.80;;;;;;;;;;4992448;28;20496;-46
2023/07/26 01:45:09;;;;;;;0.98;0.60;;;;;;;;;;4994381;28;20046;-45
2023/07/26 01:47:35;;;;;;;0.70;0.70;;;;;;;;;;4997576;28;20060;-46
2023/07/26 01:50:00;;;;;;;0.98;0.90;;;;;;;;;;4991954;28;20124;-45
2023/07/26 01:52:26;;;;;;;0.95;0.70;;;;;;;;;;4991783;28;20404;-45
2023/07/26 01:54:51;;;;;;;2.33;0.82;;;;;;;;;;4987306;28;20105;-45
2023/07/26 01:57:17;;;;;;;1.58;0.63;;;;;;;;;;4993242;28;20022;-45
2023/07/26 01:59:42;;;;;;;2.47;0.73;;;;;;;;;;4997727;28;20030;-46
2023/07/26 02:02:08;;;;;;;3.13;0.80;;;;;;;;;;4962973;28;20027;-45
2023/07/26 02:04:33;;;;;;;0.60;0.60;;;;;;;;;;4980441;28;20117;-46
2023/07/26 02:06:58;;;;;;;0.93;0.93;;;;;;;;;;4993658;28;20057;-44
2023/07/26 02:09:24;;;;;;;0.65;0.65;;;;;;;;;;4984287;28;20065;-46
2023/07/26 02:11:49;;;;;;;1.00;0.68;;;;;;;;;;4991931;28;20091;-45
2023/07/26 02:14:16;;;;;;;0.70;0.70;;;;;;;;;;4997038;28;20029;-45
2023/07/26 02:16:41;;;;;;;1.27;0.90;;;;;;;;;;4979536;28;20070;-47
2023/07/26 02:19:07;;;;;;;0.80;0.80;;;;;;;;;;4992651;28;20027;-48
2023/07/26 02:21:33;;;;;;;0.60;0.60;;;;;;;;;;4986366;28;20035;-47
2023/07/26 02:23:58;;;;;;;0.80;0.65;;;;;;;;;;4986555;28;20049;-46
2023/07/26 02:26:24;;;;;;;0.80;0.50;;;;;;;;;;4986771;28;20058;-44
2023/07/26 02:28:49;;;;;;;1.25;0.60;;;;;;;;;;4994591;28;20026;-46
2023/07/26 02:31:14;;;;;;;1.38;1.08;;;;;;;;;;4992863;28;20046;-47
2023/07/26 02:33:40;;;;;;;12.27;1.23;;;;;;;;;;4984839;28;20537;-45
2023/07/26 02:36:05;;;;;;;0.70;0.70;;;;;;;;;;4972633;28;20047;-48
2023/07/26 02:38:30;;;;;;;3.15;0.68;;;;;;;;;;4988651;28;20019;-46
2023/07/26 02:40:56;;;;;;;2.78;0.82;;;;;;;;;;4993875;28;20037;-47
2023/07/26 02:43:21;;;;;;;0.70;0.70;;;;;;;;;;4986475;28;20058;-46
2023/07/26 02:45:47;;;;;;;1.83;0.90;;;;;;;;;;4996521;28;20053;-46
2023/07/26 02:48:12;;;;;;;3.08;0.82;;;;;;;;;;4992462;28;20106;-48
2023/07/26 02:50:38;;;;;;;0.90;0.70;;;;;;;;;;4993146;28;20035;-46
2023/07/26 02:53:03;;;;;;;2.88;0.70;;;;;;;;;;4995784;28;20109;-48
2023/07/26 02:55:28;;;;;;;3.22;0.70;;;;;;;;;;5005271;28;20035;-45
2023/07/26 02:57:54;;;;;;;2.35;0.63;;;;;;;;;;4989758;28;20030;-46
2023/07/26 03:00:19;;;;;;;0.77;0.77;;;;;;;;;;4987642;28;20057;-45
2023/07/26 03:02:45;;;;;;;2.00;0.88;;;;;;;;;;4997315;28;20105;-48
2023/07/26 03:05:10;;;;;;;0.93;0.90;;;;;;;;;;4994675;28;20113;-44
2023/07/26 03:07:36;;;;;;;1.00;0.82;;;;;;;;;;4978035;28;20057;-48
2023/07/26 03:10:01;;;;;;;1.65;0.90;;;;;;;;;;4993619;28;20089;-45
2023/07/26 03:12:27;;;;;;;0.93;0.77;;;;;;;;;;4997341;28;20429;-47
2023/07/26 03:14:52;;;;;;;1.17;1.00;;;;;;;;;;4995087;28;20034;-48
2023/07/26 03:17:18;;;;;;;0.65;0.65;;;;;;;;;;4988543;28;20022;-47
2023/07/26 03:19:43;;;;;;;0.60;0.60;;;;;;;;;;4986763;28;20022;-44
2023/07/26 03:22:09;;;;;;;3.60;1.00;;;;;;;;;;4997559;28;20035;-46
2023/07/26 03:24:34;;;;;;;4.53;0.80;;;;;;;;;;4997641;28;20022;-45
2023/07/26 03:26:59;;;;;;;0.63;0.63;;;;;;;;;;4994995;28;20039;-47
2023/07/26 03:29:25;;;;;;;0.95;0.80;;;;;;;;;;4991865;28;20031;-46
2023/07/26 03:31:50;;;;;;;1.17;0.63;;;;;;;;;;4992141;28;20046;-46
2023/07/26 03:34:16;;;;;;;2.42;0.70;;;;;;;;;;4994765;28;20026;-43
2023/07/26 03:36:41;;;;;;;3.38;0.93;;;;;;;;;;4996388;28;20503;-46
2023/07/26 03:39:07;;;;;;;0.52;0.45;;;;;;;;;;4996748;28;20065;-47
2023/07/26 03:41:32;;;;;;;1.55;1.00;;;;;;;;;;4994206;28;20042;-45
2023/07/26 03:43:57;;;;;;;2.42;0.93;;;;;;;;;;4996391;28;20030;-46
2023/07/26 03:46:23;;;;;;;0.85;0.80;;;;;;;;;;4993786;28;20703;-45
2023/07/26 03:48:48;;;;;;;0.70;0.70;;;;;;;;;;4983557;28;20389;-48
2023/07/26 03:51:14;;;;;;;0.90;0.70;;;;;;;;;;4989025;28;20043;-49
2023/07/26 03:53:39;;;;;;;0.88;0.80;;;;;;;;;;4991944;28;20034;-44
2023/07/26 03:56:04;;;;;;;1.92;0.90;;;;;;;;;;4996849;28;20050;-47
2023/07/26 03:58:30;;;;;;;0.70;0.70;;;;;;;;;;4986895;28;20385;-49
2023/07/26 04:00:55;;;;;;;1.10;0.70;;;;;;;;;;4996503;28;20631;-49
2023/07/26 04:03:21;;;;;;;3.67;1.00;;;;;;;;;;4992744;28;20104;-46
2023/07/26 04:05:46;;;;;;;0.50;0.50;;;;;;;;;;4991239;28;20034;-47
2023/07/26 04:08:11;;;;;;;1.27;0.90;;;;;;;;;;4992328;28;20031;-47
2023/07/26 04:10:37;;;;;;;0.80;0.80;;;;;;;;;;4988809;28;20034;-47
2023/07/26 04:13:03;;;;;;;2.28;0.80;;;;;;;;;;4995631;28;20492;-50
2023/07/26 04:15:31;;;;;;;1.00;0.70;;;;;;;;;;4991832;28;20408;-46
2023/07/26 04:17:57;;;;;;;0.80;0.80;;;;;;;;;;4994915;28;20022;-50
2023/07/26 04:20:22;;;;;;;1.95;1.10;;;;;;;;;;4990755;28;20520;-49
2023/07/26 04:22:48;;;;;;;1.23;0.90;;;;;;;;;;4985082;28;20041;-49
2023/07/26 04:25:14;;;;;;;1.88;1.10;;;;;;;;;;4984451;28;20396;-48
2023/07/26 04:27:40;;;;;;;0.73;0.73;;;;;;;;;;4984273;28;20031;-45
2023/07/26 04:30:06;;;;;;;1.83;0.93;;;;;;;;;;4968271;28;20046;-47
2023/07/26 04:32:31;;;;;;;3.03;1.10;;;;;;;;;;4990393;28;20508;-48
2023/07/26 04:34:57;;;;;;;0.70;0.70;;;;;;;;;;4990551;28;20053;-45
2023/07/26 04:37:23;;;;;;;0.70;0.70;;;;;;;;;;4995222;28;20030;-45
2023/07/26 04:39:49;;;;;;;1.05;0.55;;;;;;;;;;4991594;28;20080;-46
2023/07/26 04:42:15;;;;;;;1.45;0.70;;;;;;;;;;4995102;28;20034;-50
2023/07/26 04:44:40;;;;;;;1.20;1.10;;;;;;;;;;4994293;28;20038;-47
2023/07/26 04:47:05;;;;;;;2.20;0.80;;;;;;;;;;4994318;28;20034;-48
2023/07/26 04:49:31;;;;;;;0.60;0.60;;;;;;;;;;4995602;28;20027;-46
2023/07/26 04:51:56;;;;;;;1.20;1.00;;;;;;;;;;4993833;28;20048;-47
2023/07/26 04:54:22;;;;;;;1.98;0.93;;;;;;;;;;4991285;28;20027;-45
2023/07/26 04:56:47;;;;;;;1.15;0.85;;;;;;;;;;4998346;28;20034;-53
2023/07/26 04:59:13;;;;;;;1.10;0.98;;;;;;;;;;4988007;28;20029;-46
2023/07/26 05:01:38;;;;;;;2.15;1.10;;;;;;;;;;4992766;28;20408;-46
2023/07/26 05:04:04;;;;;;;0.82;0.70;;;;;;;;;;4992607;28;20035;-45
2023/07/26 05:06:30;;;;;;;0.65;0.65;;;;;;;;;;5000639;28;20034;-46
2023/07/26 05:08:56;;;;;;;1.77;0.80;;;;;;;;;;4981366;28;20038;-45
2023/07/26 05:11:22;;;;;;;2.58;0.80;;;;;;;;;;4971797;28;20043;-45
2023/07/26 05:13:49;;;;;;;0.73;0.70;;;;;;;;;;4999239;28;20034;-49
2023/07/26 05:16:14;;;;;;;1.50;1.00;;;;;;;;;;4999528;28;20026;-48
2023/07/26 05:18:40;;;;;;;3.55;0.80;;;;;;;;;;5001206;28;20045;-47
2023/07/26 05:21:05;;;;;;;0.80;0.80;;;;;;;;;;4999638;28;20667;-51
2023/07/26 05:23:31;;;;;;;0.77;0.77;;;;;;;;;;4997125;28;20041;-46
2023/07/26 05:25:56;;;;;;;4.00;0.82;;;;;;;;;;4998356;28;20045;-48
2023/07/26 05:28:21;;;;;;;4.72;0.82;;;;;;;;;;5000691;28;20026;-48
2023/07/26 05:30:47;;;;;;;2.63;1.00;;;;;;;;;;4973457;28;20524;-46
2023/07/26 05:33:12;;;;;;;3.83;0.88;;;;;;;;;;4982687;28;20435;-47
2023/07/26 05:35:38;;;;;;;0.85;0.80;;;;;;;;;;4988188;28;20065;-48
2023/07/26 05:38:04;;;;;;;3.92;0.73;;;;;;;;;;4999829;28;20093;-46
2023/07/26 05:40:29;;;;;;;2.15;0.93;;;;;;;;;;4990390;28;20058;-45
2023/07/26 05:42:54;;;;;;;5.72;0.88;;;;;;;;;;4981546;28;20034;-46
2023/07/26 05:45:20;;;;;;;1.05;0.80;;;;;;;;;;4985139;28;20042;-46
2023/07/26 05:47:45;;;;;;;1.30;1.00;;;;;;;;;;5001473;28;20062;-46
2023/07/26 05:50:11;;;;;;;2.03;0.90;;;;;;;;;;4996548;28;20054;-48
2023/07/26 05:52:37;;;;;;;2.65;0.80;;;;;;;;;;4988942;28;20034;-47
2023/07/26 05:55:03;;;;;;;1.55;0.90;;;;;;;;;;4997650;28;20417;-46
2023/07/26 05:57:28;;;;;;;2.45;0.70;;;;;;;;;;4989499;28;20030;-49
2023/07/26 05:59:54;;;;;;;0.60;0.60;;;;;;;;;;5000310;28;20034;-48
2023/07/26 06:02:19;;;;;;;9.00;1.15;;;;;;;;;;4999634;28;20054;-46
2023/07/26 06:04:46;;;;;;;0.68;0.68;;;;;;;;;;4996619;28;20547;-48
2023/07/26 06:07:11;;;;;;;1.27;0.80;;;;;;;;;;4992606;28;20029;-46
2023/07/26 06:09:37;;;;;;;1.65;1.23;;;;;;;;;;4983772;28;20026;-46
2023/07/26 06:12:03;;;;;;;12.40;1.02;;;;;;;;;;4995884;28;20046;-45
2023/07/26 06:14:29;;;;;;;3.28;0.95;;;;;;;;;;4987023;28;20026;-46
2023/07/26 06:16:54;;;;;;;5.38;0.90;;;;;;;;;;4998606;28;20044;-50
2023/07/26 06:19:21;;;;;;;2.08;0.98;;;;;;;;;;4989913;28;20069;-46
2023/07/26 06:21:46;;;;;;;5.38;1.08;;;;;;;;;;4996431;28;20050;-49
2023/07/26 06:24:12;;;;;;;1.38;0.82;;;;;;;;;;4999700;28;20068;-46
2023/07/26 06:26:38;;;;;;;4.25;0.95;;;;;;;;;;4995489;28;20663;-45
2023/07/26 06:29:03;;;;;;;2.42;1.02;;;;;;;;;;4997779;28;20026;-44
2023/07/26 06:31:29;;;;;;;4.10;1.52;;;;;;;;;;4987131;28;20439;-48
2023/07/26 06:33:54;;;;;;;4.03;1.00;;;;;;;;;;4988572;28;20062;-51
2023/07/26 06:36:20;;;;;;;10.13;1.17;;;;;;;;;;4979090;28;20071;-46
2023/07/26 06:38:45;;;;;;;3.95;1.08;;;;;;;;;;4991808;28;20049;-46
2023/07/26 06:41:11;;;;;;;2.20;2.00;;;;;;;;;;4996595;28;20126;-50
2023/07/26 06:43:37;;;;;;;1.25;0.80;;;;;;;;;;4994411;28;20085;-49
2023/07/26 06:46:03;;;;;;;4.38;1.20;;;;;;;;;;4986809;28;20063;-46
2023/07/26 06:48:29;;;;;;;0.70;0.70;;;;;;;;;;4997458;28;20032;-45
2023/07/26 06:50:54;;;;;;;1.48;1.00;;;;;;;;;;4988375;28;20045;-49
2023/07/26 06:53:19;;;;;;;7.43;1.08;;;;;;;;;;4991512;28;20118;-46
2023/07/26 06:55:45;;;;;;;6.78;1.00;;;;;;;;;;4989619;28;20050;-47
2023/07/26 06:58:11;;;;;;;2.92;0.80;;;;;;;;;;4995594;28;20484;-49
2023/07/26 07:00:36;;;;;;;3.60;0.90;;;;;;;;;;4993763;28;20045;-48
2023/07/26 07:03:03;;;;;;;0.70;0.70;;;;;;;;;;4996748;28;20042;-46
2023/07/26 07:05:30;;;;;;;2.65;0.80;;;;;;;;;;4996634;28;20046;-47
2023/07/26 07:07:56;;;;;;;3.42;0.80;;;;;;;;;;4995516;28;20030;-46
2023/07/26 07:10:24;;;;;;;6.22;0.95;;;;;;;;;;4992124;28;20045;-46
2023/07/26 07:12:49;;;;;;;6.00;1.13;;;;;;;;;;4990925;28;20033;-48
2023/07/26 07:15:15;;;;;;;3.42;0.90;;;;;;;;;;4989969;28;20496;-45
2023/07/26 07:17:40;;;;;;;1.02;0.82;;;;;;;;;;4983876;28;20030;-45
2023/07/26 07:20:07;;;;;;;3.42;0.75;;;;;;;;;;4994036;28;20042;-47
2023/07/26 07:22:33;;;;;;;2.10;0.90;;;;;;;;;;4997949;28;20028;-47
2023/07/26 07:24:58;;;;;;;0.85;0.75;;;;;;;;;;4992382;28;20396;-50
2023/07/26 07:27:24;;;;;;;12.80;0.93;;;;;;;;;;4981248;28;20022;-47
2023/07/26 07:29:50;;;;;;;8.50;1.13;;;;;;;;;;4980571;28;20037;-51
2023/07/26 07:32:16;;;;;;;2.55;0.90;;;;;;;;;;4989027;28;20038;-48
2023/07/26 07:34:42;;;;;;;8.85;1.33;;;;;;;;;;4988242;28;20050;-46
2023/07/26 07:37:07;;;;;;;4.93;1.35;;;;;;;;;;4983108;28;20034;-47
2023/07/26 07:39:32;;;;;;;7.07;1.00;;;;;;;;;;4983618;28;20147;-47
2023/07/26 07:41:58;;;;;;;2.40;0.85;;;;;;;;;;4989952;28;20063;-47
2023/07/26 07:44:23;;;;;;;4.68;0.93;;;;;;;;;;4977402;28;20037;-46
2023/07/26 07:46:49;;;;;;;2.10;0.82;;;;;;;;;;4988694;28;20058;-51
2023/07/26 07:49:14;;;;;;;2.45;0.98;;;;;;;;;;4996821;28;20380;-47
2023/07/26 07:51:40;;;;;;;7.90;0.80;;;;;;;;;;4996354;28;20530;-49
2023/07/26 07:54:05;;;;;;;2.42;0.77;;;;;;;;;;4993425;28;20031;-47
2023/07/26 07:56:31;;;;;;;2.08;0.95;;;;;;;;;;4989913;28;20530;-48
2023/07/26 07:58:56;;;;;;;7.30;1.48;;;;;;;;;;4986509;28;20038;-49
2023/07/26 08:01:22;;;;;;;3.65;1.23;;;;;;;;;;4977078;28;20045;-49
2023/07/26 08:03:47;;;;;;;11.27;1.05;;;;;;;;;;4995217;28;20026;-48
2023/07/26 08:06:13;;;;;;;8.95;1.20;;;;;;;;;;4978473;28;20409;-46
2023/07/26 08:08:39;;;;;;;2.03;0.82;;;;;;;;;;4995964;28;20121;-46
2023/07/26 08:11:06;;;;;;;6.93;1.08;;;;;;;;;;4990906;28;20108;-48
2023/07/26 08:13:32;;;;;;;2.72;1.00;;;;;;;;;;4987114;28;20031;-46
2023/07/26 08:15:58;;;;;;;0.88;0.88;;;;;;;;;;4992834;28;20045;-45
2023/07/26 08:18:23;;;;;;;0.60;0.60;;;;;;;;;;4992568;28;20469;-44
2023/07/26 08:20:49;;;;;;;1.95;1.00;;;;;;;;;;4993412;28;20042;-49
2023/07/26 08:23:14;;;;;;;7.97;1.20;;;;;;;;;;4994154;28;20032;-49
2023/07/26 08:25:40;;;;;;;5.75;0.95;;;;;;;;;;4983379;28;20043;-49
2023/07/26 08:28:06;;;;;;;2.58;0.77;;;;;;;;;;4991470;28;20431;-49
2023/07/26 08:30:31;;;;;;;3.08;1.02;;;;;;;;;;4993772;28;20141;-45
2023/07/26 08:32:57;;;;;;;2.58;0.80;;;;;;;;;;4989006;28;20038;-48
2023/07/26 08:35:23;;;;;;;2.38;0.98;;;;;;;;;;4989569;28;20571;-47
2023/07/26 08:37:49;;;;;;;5.05;1.05;;;;;;;;;;4978450;28;20030;-44
2023/07/26 08:40:15;;;;;;;3.10;0.98;;;;;;;;;;4994240;28;20046;-47
2023/07/26 08:42:41;;;;;;;2.35;0.80;;;;;;;;;;4995686;28;20041;-47
2023/07/26 08:45:06;;;;;;;7.82;0.95;;;;;;;;;;4990106;28;20043;-46
2023/07/26 08:47:34;;;;;;;1.50;0.73;;;;;;;;;;4995312;28;20439;-47
2023/07/26 08:49:59;;;;;;;2.97;0.95;;;;;;;;;;4996359;28;20066;-47
2023/07/26 08:52:26;;;;;;;2.63;0.88;;;;;;;;;;4994258;28;20025;-47
2023/07/26 08:54:52;;;;;;;7.35;1.08;;;;;;;;;;4993397;28;20092;-48
2023/07/26 08:57:18;;;;;;;5.15;1.02;;;;;;;;;;4993026;28;20022;-49
2023/07/26 08:59:44;;;;;;;2.03;1.10;;;;;;;;;;4985917;28;20031;-43
2023/07/26 09:02:13;;;;;;;8.35;1.30;;;;;;;;;;4988111;28;20023;-47
2023/07/26 09:04:39;;;;;;;4.28;0.93;;;;;;;;;;4982205;28;20031;-41
2023/07/26 09:07:05;;;;;;;4.07;1.05;;;;;;;;;;4995032;28;20586;-46
2023/07/26 09:09:35;;;;;;;11.50;1.20;;;;;;;;;;4987380;28;20026;-48
2023/07/26 09:12:01;;;;;;;2.97;1.00;;;;;;;;;;4979233;28;20061;-46
2023/07/26 09:14:28;;;;;;;2.80;1.10;;;;;;;;;;4992355;28;20030;-47
2023/07/26 09:16:57;;;;;;;1.42;0.60;;;;;;;;;;4995361;28;20122;-46
2023/07/26 09:19:34;;;;;;;1.48;0.77;;;;;;;;;;4994724;28;20464;-47
2023/07/26 09:22:04;;;;;;;5.80;1.10;;;;;;;;;;4989435;28;20042;-45
2023/07/26 09:24:35;;;;;;;9.75;1.20;;;;;;;;;;4996378;28;20030;-46
2023/07/26 09:27:11;;;;;;;2.47;0.85;;;;;;;;;;4991547;28;20065;-45
2023/07/26 09:29:40;;;;;;;1.27;0.80;;;;;;;;;;4995933;28;20033;-49
2023/07/26 09:32:07;;;;;;;2.17;0.85;;;;;;;;;;4995000;28;20058;-52
2023/07/26 09:34:32;;;;;;;5.40;1.23;;;;;;;;;;4995135;28;20181;-45
2023/07/26 09:36:59;;;;;;;1.50;0.65;;;;;;;;;;4991164;28;20051;-50
2023/07/26 09:39:27;;;;;;;1.00;0.98;;;;;;;;;;4992141;28;20037;-47
2023/07/26 09:42:07;;;;;;;2.05;0.98;;;;;;;;;;4996535;28;20050;-47
2023/07/26 09:44:33;;;;;;;3.15;1.05;;;;;;;;;;4996689;28;20026;-50
2023/07/26 09:46:59;;;;;;;3.42;1.00;;;;;;;;;;4999007;28;20689;-47
2023/07/26 09:49:29;;;;;;;3.28;1.65;;;;;;;;;;4998390;28;20030;-45
2023/07/26 09:51:59;;;;;;;2.03;0.80;;;;;;;;;;4989779;28;20046;-47
2023/07/26 09:54:30;;;;;;;2.88;1.20;;;;;;;;;;4976948;28;20444;-47
2023/07/26 09:56:57;;;;;;;2.47;0.90;;;;;;;;;;4997191;28;20077;-48
2023/07/26 09:59:28;;;;;;;2.55;1.00;;;;;;;;;;4998672;28;20029;-45
2023/07/26 10:01:54;;;;;;;1.45;1.05;;;;;;;;;;4998321;28;20035;-45
2023/07/26 10:04:26;;;;;;;3.25;1.27;;;;;;;;;;4993375;28;20445;-49
2023/07/26 10:06:55;;;;;;;1.13;0.77;;;;;;;;;;4997978;28;20086;-48
2023/07/26 10:09:23;;;;;;;4.95;1.35;;;;;;;;;;4980675;28;20026;-47
2023/07/26 10:11:49;;;;;;;5.65;1.23;;;;;;;;;;4989123;28;20039;-48
2023/07/26 10:14:19;;;;;;;2.03;0.95;;;;;;;;;;4984162;28;20023;-49
2023/07/26 10:16:46;;;;;;;7.25;1.23;;;;;;;;;;4995381;28;20499;-49
2023/07/26 10:19:12;;;;;;;2.50;1.35;;;;;;;;;;4987000;28;20044;-47
2023/07/26 10:21:39;;;;;;;3.92;1.27;;;;;;;;;;4995298;28;20038;-50
2023/07/26 10:24:04;;;;;;;6.47;1.23;;;;;;;;;;4992839;28;20034;-48
2023/07/26 10:26:33;;;;;;;13.30;1.42;;;;;;;;;;4986121;28;20046;-47
2023/07/26 10:28:59;;;;;;;1.85;0.82;;;;;;;;;;4993879;28;20061;-47
2023/07/26 10:31:28;;;;;;;1.63;0.90;;;;;;;;;;4991335;28;20073;-50
2023/07/26 10:33:54;;;;;;;4.30;1.00;;;;;;;;;;4990130;28;20030;-46
2023/07/26 10:36:20;;;;;;;2.72;0.95;;;;;;;;;;4981481;28;20099;-46
2023/07/26 10:38:50;;;;;;;3.13;1.23;;;;;;;;;;4984625;28;20034;-47
2023/07/26 10:41:26;;;;;;;6.40;0.93;;;;;;;;;;4968852;28;20398;-49
2023/07/26 10:44:06;;;;;;;9.02;1.02;;;;;;;;;;4991560;28;20034;-48
2023/07/26 10:46:50;;;;;;;7.93;1.00;;;;;;;;;;4994566;28;20117;-47
2023/07/26 10:49:32;;;;;;;5.35;0.80;;;;;;;;;;4996165;28;20027;-49
2023/07/26 10:51:58;;;;;;;1.15;0.90;;;;;;;;;;4996512;28;20410;-50
2023/07/26 10:54:44;;;;;;;2.78;1.15;;;;;;;;;;4989795;28;20089;-49
2023/07/26 10:57:20;;;;;;;4.65;1.10;;;;;;;;;;4996795;28;20093;-53
2023/07/26 10:59:52;;;;;;;3.55;1.20;;;;;;;;;;4997183;28;20038;-49
2023/07/26 11:02:34;;;;;;;2.35;1.00;;;;;;;;;;4986250;28;20070;-48
2023/07/26 11:05:01;;;;;;;8.82;1.70;;;;;;;;;;4994650;28;20042;-51
2023/07/26 11:08:01;;;;;;;3.00;1.00;;;;;;;;;;4998184;28;20027;-51
2023/07/26 11:10:32;;;;;;;3.67;1.08;;;;;;;;;;4990211;28;20042;-49
2023/07/26 11:13:10;;;;;;;4.85;1.20;;;;;;;;;;4997557;28;20034;-51
2023/07/26 11:15:44;;;;;;;20.08;1.60;;;;;;;;;;4996258;28;20043;-47
2023/07/26 11:18:10;;;;;;;6.15;1.52;;;;;;;;;;4996427;28;20062;-46
2023/07/26 11:20:43;;;;;;;3.33;1.17;;;;;;;;;;4989500;28;20046;-49
2023/07/26 11:23:19;;;;;;;5.90;1.10;;;;;;;;;;4994724;28;20030;-47
2023/07/26 11:25:46;;;;;;;4.75;1.02;;;;;;;;;;4981201;28;20401;-47
2023/07/26 11:28:11;;;;;;;11.23;1.25;;;;;;;;;;4992566;28;20114;-46
2023/07/26 11:30:45;;;;;;;5.20;1.25;;;;;;;;;;4985059;28;20074;-50
2023/07/26 11:33:11;;;;;;;4.50;1.10;;;;;;;;;;4995396;28;20452;-51
2023/07/26 11:35:41;;;;;;;5.28;1.17;;;;;;;;;;4993437;28;20066;-46
2023/07/26 11:38:08;;;;;;;6.45;1.33;;;;;;;;;;4996132;28;20119;-49
2023/07/26 11:40:41;;;;;;;5.15;1.55;;;;;;;;;;4987036;28;20042;-46
2023/07/26 11:43:07;;;;;;;3.10;1.35;;;;;;;;;;4982372;28;20066;-46
2023/07/26 11:45:35;;;;;;;6.32;1.25;;;;;;;;;;4994079;28;20062;-46
2023/07/26 11:48:00;;;;;;;5.57;1.00;;;;;;;;;;4979061;28;20366;-50
2023/07/26 11:50:26;;;;;;;3.05;1.02;;;;;;;;;;4995023;28;20072;-46
2023/07/26 11:53:08;;;;;;;4.07;1.17;;;;;;;;;;4994995;28;20061;-46
2023/07/26 11:55:34;;;;;;;7.53;1.60;;;;;;;;;;4994640;28;20034;-45
2023/07/26 11:58:03;;;;;;;2.67;1.40;;;;;;;;;;4994384;28;20445;-47
2023/07/26 12:00:30;;;;;;;3.70;1.20;;;;;;;;;;4996306;28;20042;-49
2023/07/26 12:02:55;;;;;;;4.40;1.40;;;;;;;;;;4985652;28;20054;-51
2023/07/26 12:05:26;;;;;;;1.35;1.10;;;;;;;;;;4989333;28;20037;-47
2023/07/26 12:07:56;;;;;;;10.90;1.40;;;;;;;;;;4995872;28;20145;-47
2023/07/26 12:10:31;;;;;;;2.72;0.95;;;;;;;;;;4998110;28;20102;-50
2023/07/26 12:12:58;;;;;;;4.82;1.63;;;;;;;;;;4979715;28;20161;-47
2023/07/26 12:15:26;;;;;;;10.40;1.55;;;;;;;;;;4989420;28;20026;-48
2023/07/26 12:17:59;;;;;;;2.72;1.35;;;;;;;;;;4997027;28;20097;-50
2023/07/26 12:20:25;;;;;;;5.55;1.50;;;;;;;;;;4991956;28;20148;-45
2023/07/26 12:22:55;;;;;;;2.15;1.45;;;;;;;;;;4983661;28;20030;-49
2023/07/26 12:25:31;;;;;;;1.85;1.35;;;;;;;;;;4994552;28;20034;-48
2023/07/26 12:27:56;;;;;;;4.70;1.60;;;;;;;;;;4984873;28;20038;-48
2023/07/26 12:30:22;;;;;;;4.30;1.40;;;;;;;;;;4989123;28;20050;-49
2023/07/26 12:33:05;;;;;;;1.50;1.40;;;;;;;;;;4986288;28;20027;-48
2023/07/26 12:35:34;;;;;;;3.80;1.45;;;;;;;;;;4987546;28;20062;-48
2023/07/26 12:38:12;;;;;;;5.60;1.50;;;;;;;;;;4988266;28;20552;-47
2023/07/26 12:40:38;;;;;;;1.40;1.10;;;;;;;;;;4989497;28;20049;-49
2023/07/26 12:43:28;;;;;;;5.15;1.60;;;;;;;;;;4991500;28;20030;-47
2023/07/26 12:45:58;;;;;;;2.17;1.52;;;;;;;;;;4991567;28;20045;-49
2023/07/26 12:48:26;;;;;;;6.57;1.50;;;;;;;;;;4989313;28;20073;-50
2023/07/26 12:50:53;;;;;;;5.40;1.50;;;;;;;;;;4993851;28;20062;-47
2023/07/26 12:53:19;;;;;;;9.00;1.55;;;;;;;;;;4995558;28;20448;-47
2023/07/26 12:55:45;;;;;;;15.07;1.90;;;;;;;;;;4995715;28;20053;-50
2023/07/26 12:58:10;;;;;;;6.47;1.80;;;;;;;;;;4994023;28;20026;-53
2023/07/26 13:00:36;;;;;;;6.90;1.85;;;;;;;;;;4992960;28;20046;-48
2023/07/26 13:03:03;;;;;;;6.95;1.75;;;;;;;;;;4979985;28;20547;-46
2023/07/26 13:05:28;;;;;;;3.10;1.75;;;;;;;;;;4995353;28;20492;-49
2023/07/26 13:07:54;;;;;;;4.90;1.40;;;;;;;;;;4989105;28;20038;-50
2023/07/26 13:10:20;;;;;;;4.70;1.70;;;;;;;;;;4988754;28;20033;-49
2023/07/26 13:12:46;;;;;;;11.23;1.95;;;;;;;;;;4993084;28;20480;-51
2023/07/26 13:15:12;;;;;;;12.73;1.63;;;;;;;;;;4999874;28;20038;-51
2023/07/26 13:17:38;;;;;;;2.33;1.50;;;;;;;;;;4995970;28;20391;-50
2023/07/26 13:20:04;;;;;;;5.25;1.80;;;;;;;;;;4997810;28;20045;-45
2023/07/26 13:22:30;;;;;;;6.40;1.65;;;;;;;;;;4992632;28;20036;-49
2023/07/26 13:24:56;;;;;;;10.75;1.80;;;;;;;;;;4999671;28;20038;-46
2023/07/26 13:27:22;;;;;;;15.02;1.50;;;;;;;;;;4997579;28;20037;-48
2023/07/26 13:29:48;;;;;;;5.00;1.40;;;;;;;;;;4996802;28;20431;-47
2023/07/26 13:32:14;;;;;;;1.63;1.40;;;;;;;;;;4987376;28;20030;-49
2023/07/26 13:34:40;;;;;;;7.95;1.35;;;;;;;;;;4990717;28;20018;-48
2023/07/26 13:37:06;;;;;;;1.27;1.13;;;;;;;;;;4998186;28;20478;-50
2023/07/26 13:39:32;;;;;;;7.22;1.60;;;;;;;;;;4999184;28;20794;-50
2023/07/26 13:41:57;;;;;;;5.90;1.60;;;;;;;;;;4994325;28;20038;-47
2023/07/26 13:44:23;;;;;;;3.42;1.50;;;;;;;;;;4997101;28;20054;-46
2023/07/26 13:46:48;;;;;;;4.80;1.40;;;;;;;;;;4983602;28;20066;-48
2023/07/26 13:49:14;;;;;;;7.97;1.50;;;;;;;;;;4993878;28;20022;-48
2023/07/26 13:51:39;;;;;;;10.40;1.88;;;;;;;;;;4979596;28;20051;-47
2023/07/26 13:54:06;;;;;;;5.13;1.88;;;;;;;;;;4989933;28;20027;-47
2023/07/26 13:56:32;;;;;;;5.65;1.23;;;;;;;;;;4999126;28;20501;-48
2023/07/26 13:58:58;;;;;;;4.88;1.30;;;;;;;;;;4986201;28;20022;-50
2023/07/26 14:01:24;;;;;;;4.05;1.38;;;;;;;;;;4996716;28;20177;-47
2023/07/26 14:03:49;;;;;;;4.65;1.30;;;;;;;;;;4998230;28;20369;-48
2023/07/26 14:06:15;;;;;;;4.28;1.60;;;;;;;;;;4995901;28;20112;-49
2023/07/26 14:08:40;;;;;;;6.43;1.40;;;;;;;;;;4982910;28;20076;-46
2023/07/26 14:11:06;;;;;;;3.20;1.33;;;;;;;;;;4995518;28;20073;-51
2023/07/26 14:13:31;;;;;;;3.85;1.30;;;;;;;;;;4979658;28;20081;-47
2023/07/26 14:15:57;;;;;;;3.10;1.25;;;;;;;;;;4996384;28;20120;-46
2023/07/26 14:18:23;;;;;;;3.92;1.73;;;;;;;;;;4999146;28;20030;-49
2023/07/26 14:20:49;;;;;;;3.05;1.50;;;;;;;;;;4988485;28;20543;-49
2023/07/26 14:23:15;;;;;;;7.13;1.60;;;;;;;;;;4986390;28;20397;-48
2023/07/26 14:25:40;;;;;;;1.67;1.30;;;;;;;;;;4995363;28;20042;-46
2023/07/26 14:28:05;;;;;;;4.30;1.27;;;;;;;;;;4998981;28;20042;-49
2023/07/26 14:30:31;;;;;;;2.15;1.25;;;;;;;;;;4997662;28;20113;-45
2023/07/26 14:32:56;;;;;;;7.90;1.80;;;;;;;;;;4997888;28;20034;-52
2023/07/26 14:35:22;;;;;;;2.05;1.50;;;;;;;;;;4969772;28;20070;-51
2023/07/26 14:37:47;;;;;;;4.20;1.42;;;;;;;;;;5000236;28;20026;-47
2023/07/26 14:40:12;;;;;;;6.53;1.60;;;;;;;;;;4990023;28;20149;-48
2023/07/26 14:42:38;;;;;;;1.98;1.30;;;;;;;;;;4978129;28;20034;-48